createdAt,value
2023-01-30T00:00:40.246Z,581.5
2023-01-30T00:02:23.929Z,577
2023-01-30T00:04:07.618Z,574.5
2023-01-30T00:05:51.366Z,572.8
2023-01-30T00:07:35.015Z,574.1
2023-01-30T00:09:18.717Z,573.7
2023-01-30T00:11:02.483Z,571.2
2023-01-30T00:12:46.257Z,570.7
2023-01-30T00:14:29.840Z,570
2023-01-30T00:16:13.540Z,567.9
2023-01-30T00:17:57.370Z,563.7
2023-01-30T00:19:41.018Z,562.8
2023-01-30T00:21:24.654Z,565
2023-01-30T00:23:08.410Z,561.3
2023-01-30T00:24:52.169Z,562.5
2023-01-30T00:26:35.782Z,563.8
2023-01-30T00:28:19.544Z,562.5
2023-01-30T00:30:03.398Z,562
2023-01-30T00:31:47.037Z,560.7
2023-01-30T00:33:30.758Z,561
2023-01-30T00:35:14.363Z,559.6
2023-01-30T00:36:58.117Z,559.1
2023-01-30T00:38:41.880Z,556.3
2023-01-30T00:40:25.548Z,549.1
2023-01-30T00:42:09.177Z,549.7
2023-01-30T00:43:52.949Z,548.3
2023-01-30T00:45:36.634Z,548.1
2023-01-30T00:47:20.256Z,545.3
2023-01-30T00:49:04.050Z,541.7
2023-01-30T00:50:47.574Z,539.5
2023-01-30T00:52:31.291Z,539.9
2023-01-30T00:54:15.196Z,540.7
2023-01-30T00:55:58.795Z,540.7
2023-01-30T00:57:42.552Z,540.1
2023-01-30T00:59:26.300Z,538.7
2023-01-30T01:01:09.770Z,539.6
2023-01-30T01:02:53.638Z,541.4
2023-01-30T01:04:37.351Z,541.9
2023-01-30T01:06:21.092Z,540
2023-01-30T01:08:04.751Z,537.7
2023-01-30T01:09:48.473Z,538.8
2023-01-30T01:11:32.140Z,540
2023-01-30T01:13:15.690Z,536.6
2023-01-30T01:14:59.525Z,535.7
2023-01-30T01:16:43.262Z,533.2
2023-01-30T01:18:27.011Z,533.5
2023-01-30T01:20:10.735Z,533.4
2023-01-30T01:21:54.359Z,533.9
2023-01-30T01:23:38.095Z,535.9
2023-01-30T01:25:21.602Z,535.2
2023-01-30T01:27:05.354Z,531.4
2023-01-30T01:28:49.118Z,531.8
2023-01-30T01:30:32.867Z,532.3
2023-01-30T01:32:16.578Z,533.5
2023-01-30T01:34:00.281Z,534.1
2023-01-30T01:35:43.934Z,532.5
2023-01-30T01:37:27.677Z,533.4
2023-01-30T01:39:11.440Z,532.6
2023-01-30T01:40:54.915Z,531.5
2023-01-30T01:42:38.835Z,531.1
2023-01-30T01:44:22.492Z,531.8
2023-01-30T01:46:06.203Z,532.2
2023-01-30T01:47:49.829Z,529.3
2023-01-30T01:49:33.475Z,527.8
2023-01-30T01:51:17.314Z,528.5
2023-01-30T01:53:01.014Z,529.6
2023-01-30T01:54:44.665Z,527.3
2023-01-30T01:56:28.397Z,527.5
2023-01-30T01:58:12.156Z,530.6
2023-01-30T01:59:55.647Z,531.6
2023-01-30T02:01:39.527Z,534.9
2023-01-30T02:03:23.108Z,537.3
2023-01-30T02:05:06.739Z,541.2
2023-01-30T02:06:50.622Z,541.3
2023-01-30T02:08:34.316Z,537
2023-01-30T02:10:18.012Z,533.2
2023-01-30T02:12:01.735Z,532.3
2023-01-30T02:13:45.431Z,534.4
2023-01-30T02:15:29.089Z,534
2023-01-30T02:17:12.627Z,531.8
2023-01-30T02:18:56.510Z,530.6
2023-01-30T02:20:40.190Z,529.7
2023-01-30T02:22:23.950Z,528.9
2023-01-30T02:24:07.632Z,528.7
2023-01-30T02:25:51.290Z,527.6
2023-01-30T02:27:34.984Z,527.9
2023-01-30T02:29:18.683Z,526.7
2023-01-30T02:31:02.417Z,529
2023-01-30T02:32:45.963Z,528.9
2023-01-30T02:34:29.778Z,530.7
2023-01-30T02:36:13.518Z,532.8
2023-01-30T02:37:57.323Z,531.1
2023-01-30T02:39:40.935Z,531.4
2023-01-30T02:41:24.636Z,531.7
2023-01-30T02:43:08.387Z,533.2
2023-01-30T02:44:51.861Z,531.9
2023-01-30T02:46:35.750Z,531.4
2023-01-30T02:48:19.476Z,532.9
2023-01-30T02:50:03.150Z,533.7
2023-01-30T02:51:46.850Z,534.3
2023-01-30T02:53:30.547Z,534
2023-01-30T02:55:14.231Z,529.7
2023-01-30T02:56:57.798Z,525.2
2023-01-30T02:58:41.488Z,524
2023-01-30T03:00:25.368Z,520.8
2023-01-30T03:02:08.999Z,522.3
2023-01-30T03:03:52.822Z,522.5
2023-01-30T03:05:36.508Z,524.4
2023-01-30T03:07:19.985Z,525.8
2023-01-30T03:09:03.839Z,525.2
2023-01-30T03:10:47.554Z,526.4
2023-01-30T03:12:31.233Z,528.7
2023-01-30T03:14:14.966Z,530.4
2023-01-30T03:17:42.359Z,533
2023-01-30T03:19:26.095Z,534
2023-01-30T03:21:09.899Z,530.6
2023-01-30T03:22:53.474Z,524
2023-01-30T03:24:37.196Z,524.7
2023-01-30T03:26:20.844Z,522.6
2023-01-30T03:28:04.475Z,525.2
2023-01-30T03:29:48.295Z,527.4
2023-01-30T03:31:31.972Z,525.2
2023-01-30T03:33:15.695Z,526.3
2023-01-30T03:34:59.405Z,527.2
2023-01-30T03:36:43.084Z,527.9
2023-01-30T03:38:26.633Z,528.5
2023-01-30T03:40:10.386Z,527.9
2023-01-30T03:41:54.132Z,525.9
2023-01-30T03:43:37.724Z,521.2
2023-01-30T03:45:21.521Z,522.2
2023-01-30T03:47:05.318Z,521.6
2023-01-30T03:48:48.883Z,523.8
2023-01-30T03:50:32.511Z,522.7
2023-01-30T03:52:16.235Z,520.3
2023-01-30T03:54:00.059Z,520.6
2023-01-30T03:55:43.637Z,522.2
2023-01-30T03:57:27.337Z,524.2
2023-01-30T03:59:11.228Z,523.6
2023-01-30T04:00:54.929Z,523.7
2023-01-30T04:02:38.597Z,522.9
2023-01-30T04:04:22.170Z,521.6
2023-01-30T04:06:06.038Z,522.1
2023-01-30T04:07:49.635Z,521.5
2023-01-30T04:09:33.315Z,520.3
2023-01-30T04:11:17.016Z,518.3
2023-01-30T04:13:00.840Z,518.1
2023-01-30T04:14:44.536Z,519.7
2023-01-30T04:16:28.147Z,516.7
2023-01-30T04:18:11.810Z,515.8
2023-01-30T04:19:55.622Z,514
2023-01-30T04:21:39.263Z,512.9
2023-01-30T04:23:23.047Z,512.6
2023-01-30T04:25:06.726Z,513.4
2023-01-30T04:26:50.419Z,512.4
2023-01-30T04:28:34.039Z,515.6
2023-01-30T04:30:17.829Z,517
2023-01-30T04:32:01.714Z,518.3
2023-01-30T04:33:45.117Z,520
2023-01-30T04:35:28.937Z,521.8
2023-01-30T04:37:12.627Z,522.8
2023-01-30T04:38:56.188Z,523.7
2023-01-30T04:40:39.872Z,523
2023-01-30T04:42:23.744Z,521.4
2023-01-30T04:44:07.281Z,519.8
2023-01-30T04:45:50.976Z,518.5
2023-01-30T04:47:34.833Z,520
2023-01-30T04:49:18.520Z,521.1
2023-01-30T04:51:02.192Z,520.4
2023-01-30T04:52:45.782Z,521.7
2023-01-30T04:54:29.641Z,523.2
2023-01-30T04:56:13.336Z,520.6
2023-01-30T04:57:57.058Z,521
2023-01-30T04:59:40.686Z,519
2023-01-30T05:01:24.424Z,519.3
2023-01-30T05:03:08.064Z,518.4
2023-01-30T05:04:51.703Z,516.1
2023-01-30T05:06:35.537Z,518.2
2023-01-30T05:08:19.212Z,518.5
2023-01-30T05:10:03.038Z,517.7
2023-01-30T05:11:46.612Z,518.6
2023-01-30T05:13:30.193Z,516
2023-01-30T05:15:14.088Z,513
2023-01-30T05:16:57.782Z,511.4
2023-01-30T05:18:41.354Z,510.5
2023-01-30T05:20:25.148Z,509.8
2023-01-30T05:22:08.833Z,509.8
2023-01-30T05:23:52.404Z,509.7
2023-01-30T05:25:36.116Z,509
2023-01-30T05:27:19.951Z,510.6
2023-01-30T05:29:03.595Z,510.6
2023-01-30T05:30:47.334Z,508.8
2023-01-30T05:32:31.104Z,509.3
2023-01-30T05:34:14.727Z,508.8
2023-01-30T05:35:58.492Z,508.7
2023-01-30T05:37:42.175Z,507.6
2023-01-30T05:39:25.852Z,511.5
2023-01-30T05:41:09.590Z,511.6
2023-01-30T05:42:53.144Z,512.2
2023-01-30T05:44:37.003Z,512.1
2023-01-30T05:46:20.662Z,513.8
2023-01-30T05:48:04.350Z,513
2023-01-30T05:49:48.052Z,509.5
2023-01-30T05:51:31.826Z,506.3
2023-01-30T05:53:15.531Z,506
2023-01-30T05:54:59.062Z,505
2023-01-30T05:56:42.945Z,504.4
2023-01-30T05:58:26.602Z,500.8
2023-01-30T06:00:10.286Z,501.2
2023-01-30T06:01:53.996Z,500.3
2023-01-30T06:03:37.654Z,497.2
2023-01-30T06:05:21.387Z,497.3
2023-01-30T06:07:05.113Z,500.4
2023-01-30T06:08:48.736Z,502.1
2023-01-30T06:10:32.362Z,502.1
2023-01-30T06:12:16.107Z,500.8
2023-01-30T06:13:59.934Z,503.4
2023-01-30T06:15:43.551Z,506.4
2023-01-30T06:17:27.221Z,505.6
2023-01-30T06:19:11.009Z,506.6
2023-01-30T06:20:54.562Z,508.8
2023-01-30T06:22:38.325Z,508
2023-01-30T06:24:22.184Z,509
2023-01-30T06:26:05.705Z,508.5
2023-01-30T06:27:49.684Z,511.4
2023-01-30T06:29:33.116Z,517.7
2023-01-30T06:31:16.927Z,525.2
2023-01-30T06:33:00.549Z,529.5
2023-01-30T06:34:44.277Z,533.6
2023-01-30T06:36:27.940Z,538.1
2023-01-30T06:38:11.779Z,538.5
2023-01-30T06:39:55.456Z,538.7
2023-01-30T06:41:39.032Z,539.8
2023-01-30T06:43:22.963Z,538.5
2023-01-30T06:45:06.549Z,536.9
2023-01-30T06:46:50.175Z,534.7
2023-01-30T06:48:33.853Z,532.9
2023-01-30T06:50:17.629Z,529.6
2023-01-30T06:52:01.411Z,529
2023-01-30T06:53:45.036Z,527.4
2023-01-30T06:55:28.698Z,526.5
2023-01-30T06:57:12.368Z,528
2023-01-30T06:58:56.081Z,528.1
2023-01-30T07:00:39.833Z,528.8
2023-01-30T07:02:23.510Z,529.1
2023-01-30T07:04:07.135Z,530.8
2023-01-30T07:05:51.087Z,530
2023-01-30T07:07:34.818Z,527.1
2023-01-30T07:09:18.393Z,525.4
2023-01-30T07:11:02.068Z,520.7
2023-01-30T07:12:45.698Z,520.3
2023-01-30T07:14:29.334Z,521
2023-01-30T07:16:13.243Z,523.4
2023-01-30T07:17:56.762Z,523.9
2023-01-30T07:21:24.309Z,523.1
2023-01-30T07:23:07.993Z,526.5
2023-01-30T07:24:51.528Z,530.4
2023-01-30T07:26:35.322Z,528.1
2023-01-30T07:28:19.130Z,527.8
2023-01-30T07:30:02.654Z,525.4
2023-01-30T07:31:46.397Z,524.6
2023-01-30T07:33:30.124Z,527.5
2023-01-30T07:35:13.843Z,529.7
2023-01-30T07:36:57.462Z,528.3
2023-01-30T07:38:41.206Z,528
2023-01-30T07:40:24.986Z,528.3
2023-01-30T07:42:08.696Z,528.1
2023-01-30T07:43:52.249Z,526.8
2023-01-30T07:45:36.091Z,522.3
2023-01-30T07:47:19.664Z,520.5
2023-01-30T07:49:03.496Z,521.5
2023-01-30T07:50:47.123Z,523.3
2023-01-30T07:52:30.763Z,522.2
2023-01-30T07:54:14.524Z,518.5
2023-01-30T07:55:58.263Z,516.8
2023-01-30T07:57:41.889Z,518
2023-01-30T07:59:25.661Z,516.2
2023-01-30T08:01:09.373Z,517.2
2023-01-30T08:02:53.015Z,518.6
2023-01-30T08:04:36.700Z,517.4
2023-01-30T08:06:20.523Z,518.1
2023-01-30T08:08:04.263Z,519.6
2023-01-30T08:09:47.858Z,522.8
2023-01-30T08:11:31.669Z,522.6
2023-01-30T08:13:15.370Z,525.1
2023-01-30T08:14:58.904Z,526.8
2023-01-30T08:16:42.748Z,522.5
2023-01-30T08:18:26.312Z,520.7
2023-01-30T08:20:10.164Z,522.5
2023-01-30T08:21:53.707Z,521.4
2023-01-30T08:23:37.588Z,523.5
2023-01-30T08:25:21.184Z,524.6
2023-01-30T08:27:04.964Z,528.3
2023-01-30T08:28:48.574Z,527.9
2023-01-30T08:30:32.324Z,529.5
2023-01-30T08:32:16.145Z,531.3
2023-01-30T08:33:59.761Z,532.7
2023-01-30T08:35:43.544Z,533.2
2023-01-30T08:37:27.073Z,533.7
2023-01-30T08:39:10.772Z,533.3
2023-01-30T08:40:54.453Z,534.3
2023-01-30T08:42:38.295Z,531.9
2023-01-30T08:44:21.849Z,532.6
2023-01-30T08:46:05.531Z,533.5
2023-01-30T08:47:49.424Z,540.3
2023-01-30T08:49:32.949Z,540.8
2023-01-30T08:51:16.805Z,540.9
2023-01-30T08:53:00.468Z,543.7
2023-01-30T08:54:44.050Z,545.3
2023-01-30T08:56:27.855Z,544.1
2023-01-30T08:58:11.488Z,545.9
2023-01-30T08:59:55.150Z,544.3
2023-01-30T09:01:38.967Z,544.5
2023-01-30T09:03:22.634Z,544.2
2023-01-30T09:05:06.381Z,542.6
2023-01-30T09:06:50.096Z,541.6
2023-01-30T09:08:33.683Z,542.5
2023-01-30T09:10:17.495Z,542.6
2023-01-30T09:12:01.067Z,543.8
2023-01-30T09:13:44.887Z,543.5
2023-01-30T09:15:28.474Z,544.5
2023-01-30T09:17:12.215Z,544.4
2023-01-30T09:18:56.033Z,543.6
2023-01-30T09:20:39.703Z,543.1
2023-01-30T09:24:07.133Z,543
2023-01-30T09:25:50.802Z,540
2023-01-30T09:27:34.369Z,535.5
2023-01-30T09:29:18.268Z,537.9
2023-01-30T09:31:01.997Z,536.9
2023-01-30T09:32:45.544Z,533.1
2023-01-30T09:36:13.004Z,531
2023-01-30T09:37:56.723Z,533
2023-01-30T09:39:40.417Z,540.6
2023-01-30T09:41:23.978Z,551.1
2023-01-30T09:43:07.710Z,560.2
2023-01-30T09:44:51.530Z,570.7
2023-01-30T09:46:35.084Z,579.5
2023-01-30T09:48:18.856Z,584.2
2023-01-30T09:50:02.493Z,587.7
2023-01-30T09:51:46.187Z,586.5
2023-01-30T09:53:29.886Z,578.5
2023-01-30T09:55:13.701Z,570.8
2023-01-30T09:56:57.461Z,567.5
2023-01-30T09:58:41.130Z,564.4
2023-01-30T10:00:24.711Z,563.8
2023-01-30T10:02:08.420Z,574.8
2023-01-30T10:03:52.214Z,591.1
2023-01-30T10:05:35.905Z,605.7
2023-01-30T10:07:19.678Z,613.2
2023-01-30T10:09:03.367Z,618.6
2023-01-30T10:10:47.043Z,615.4
2023-01-30T10:12:30.755Z,608.1
2023-01-30T10:14:14.528Z,603.5
2023-01-30T10:15:58.175Z,597.5
2023-01-30T10:17:41.963Z,598
2023-01-30T10:19:25.590Z,596.7
2023-01-30T10:21:09.332Z,594.9
2023-01-30T10:22:53.043Z,599
2023-01-30T10:24:36.726Z,598.2
2023-01-30T10:26:20.462Z,596
2023-01-30T10:28:04.098Z,596.3
2023-01-30T10:29:47.780Z,592.4
2023-01-30T10:31:31.496Z,594.6
2023-01-30T10:33:15.068Z,600.1
2023-01-30T10:34:58.771Z,605.6
2023-01-30T10:36:42.602Z,612.1
2023-01-30T10:38:26.166Z,615.3
2023-01-30T10:40:09.976Z,616.8
2023-01-30T10:41:53.720Z,619.5
2023-01-30T10:43:37.380Z,621.5
2023-01-30T10:45:21.001Z,625.3
2023-01-30T10:47:04.790Z,627.9
2023-01-30T10:48:48.396Z,629.6
2023-01-30T10:50:32.072Z,630.1
2023-01-30T10:52:15.760Z,631.1
2023-01-30T10:53:59.495Z,630.1
2023-01-30T10:55:43.211Z,631.8
2023-01-30T10:57:26.940Z,637.6
2023-01-30T10:59:10.690Z,640.2
2023-01-30T11:00:54.451Z,644.8
2023-01-30T11:02:37.978Z,653
2023-01-30T11:04:21.738Z,666.4
2023-01-30T11:06:05.378Z,685.4
2023-01-30T11:07:49.091Z,699
2023-01-30T11:09:32.770Z,714.2
2023-01-30T11:11:16.578Z,727
2023-01-30T11:13:00.320Z,732.5
2023-01-30T11:14:43.884Z,741.6
2023-01-30T11:16:27.629Z,752.1
2023-01-30T11:18:11.400Z,760.7
2023-01-30T11:19:54.978Z,772.2
2023-01-30T11:21:38.815Z,782.7
2023-01-30T11:23:22.621Z,789.8
2023-01-30T11:25:06.281Z,792.5
2023-01-30T11:26:49.966Z,791.5
2023-01-30T11:28:33.632Z,790.2
2023-01-30T11:30:17.245Z,787.4
2023-01-30T11:32:01.091Z,790.3
2023-01-30T11:33:44.636Z,795
2023-01-30T11:35:28.494Z,797.9
2023-01-30T11:37:12.134Z,799.7
2023-01-30T11:38:55.867Z,801.8
2023-01-30T11:40:39.431Z,803.9
2023-01-30T11:42:23.106Z,804
2023-01-30T11:44:06.919Z,803.1
2023-01-30T11:45:50.640Z,805
2023-01-30T11:47:34.362Z,808.1
2023-01-30T11:49:18.084Z,817.7
2023-01-30T11:51:01.764Z,823.7
2023-01-30T11:52:45.474Z,827.3
2023-01-30T11:54:29.195Z,822.1
2023-01-30T11:56:12.924Z,818.3
2023-01-30T11:57:56.557Z,816.9
2023-01-30T11:59:40.137Z,819
2023-01-30T12:01:24.016Z,814.6
2023-01-30T12:03:07.726Z,815.1
2023-01-30T12:04:51.401Z,816.9
2023-01-30T12:06:35.076Z,819.9
2023-01-30T12:08:18.772Z,823.9
2023-01-30T12:10:02.363Z,915.5
2023-01-30T12:11:46.232Z,985.4
2023-01-30T12:13:29.916Z,981.1
2023-01-30T12:15:13.617Z,988.8
2023-01-30T12:16:57.343Z,996.6
2023-01-30T12:18:41.029Z,1008
2023-01-30T12:20:24.715Z,1012.8
2023-01-30T12:22:08.360Z,1015.6
2023-01-30T12:23:51.981Z,1019.8
2023-01-30T12:25:35.774Z,1027.1
2023-01-30T12:27:19.502Z,1036.4
2023-01-30T12:29:03.209Z,1043.7
2023-01-30T12:30:46.803Z,1046.7
2023-01-30T12:32:30.697Z,1047.5
2023-01-30T12:34:14.378Z,1044.8
2023-01-30T12:35:58.056Z,1047.8
2023-01-30T12:37:41.721Z,1048.6
2023-01-30T12:39:25.314Z,1052
2023-01-30T12:41:09.123Z,1058.6
2023-01-30T12:42:52.706Z,1062.4
2023-01-30T12:44:36.400Z,1068
2023-01-30T12:46:20.239Z,1070
2023-01-30T12:48:04.019Z,1075.1
2023-01-30T12:49:47.631Z,1085.1
2023-01-30T12:51:31.218Z,1084.5
2023-01-30T12:53:14.957Z,1066.6
2023-01-30T12:54:58.620Z,1047.3
2023-01-30T12:56:42.339Z,950.2
2023-01-30T12:58:26.299Z,919.3
2023-01-30T13:00:09.712Z,927.4
2023-01-30T13:01:53.423Z,935.6
2023-01-30T13:03:37.337Z,938.7
2023-01-30T13:05:20.975Z,937.6
2023-01-30T13:07:04.516Z,934.9
2023-01-30T13:08:48.451Z,928.8
2023-01-30T13:10:32.101Z,921.3
2023-01-30T13:12:15.757Z,916.2
2023-01-30T13:13:59.493Z,908.7
2023-01-30T13:15:43.185Z,903.6
2023-01-30T13:17:26.726Z,901.2
2023-01-30T13:19:10.515Z,896.3
2023-01-30T13:20:54.276Z,893.8
2023-01-30T13:22:38.067Z,893.7
2023-01-30T13:24:21.659Z,891.9
2023-01-30T13:26:05.235Z,886.9
2023-01-30T13:27:49.088Z,884.3
2023-01-30T13:29:32.812Z,881.2
2023-01-30T13:31:16.332Z,880.6
2023-01-30T13:33:00.222Z,877.8
2023-01-30T13:34:43.791Z,876.9
2023-01-30T13:36:27.593Z,877.2
2023-01-30T13:38:11.285Z,876.6
2023-01-30T13:39:55.001Z,880.5
2023-01-30T13:41:38.576Z,881.8
2023-01-30T13:43:22.365Z,881.8
2023-01-30T13:45:05.991Z,881.9
2023-01-30T13:46:49.829Z,879
2023-01-30T13:48:33.389Z,878
2023-01-30T13:50:17.070Z,879.9
2023-01-30T13:52:00.875Z,876.2
2023-01-30T13:53:44.526Z,875.5
2023-01-30T13:55:28.185Z,874
2023-01-30T13:57:12.051Z,874.5
2023-01-30T13:58:55.749Z,874.3
2023-01-30T14:00:39.326Z,871.7
2023-01-30T14:02:23.120Z,877
2023-01-30T14:04:06.835Z,882.2
2023-01-30T14:05:50.406Z,886.6
2023-01-30T14:07:34.233Z,890.8
2023-01-30T14:09:17.946Z,891.7
2023-01-30T14:11:01.640Z,895.3
2023-01-30T14:12:45.416Z,895.1
2023-01-30T14:14:28.905Z,895.6
2023-01-30T14:16:12.698Z,896.1
2023-01-30T14:17:56.420Z,893.4
2023-01-30T14:19:43.856Z,893.6
2023-01-30T14:21:23.871Z,894.9
2023-01-30T14:23:07.499Z,895
2023-01-30T14:24:51.295Z,898.7
2023-01-30T14:26:34.850Z,903
2023-01-30T14:28:18.511Z,902.4
2023-01-30T14:30:02.245Z,899.3
2023-01-30T14:31:46.138Z,900.6
2023-01-30T14:33:29.726Z,902.5
2023-01-30T14:35:13.497Z,907.1
2023-01-30T14:36:57.045Z,907.9
2023-01-30T14:38:40.794Z,908.8
2023-01-30T14:40:24.635Z,911.8
2023-01-30T14:42:08.248Z,915.3
2023-01-30T14:43:51.816Z,922
2023-01-30T14:45:35.520Z,930
2023-01-30T14:47:19.403Z,933.9
2023-01-30T14:49:03.001Z,939.8
2023-01-30T14:50:46.611Z,941.5
2023-01-30T14:52:30.335Z,948.7
2023-01-30T14:54:14.189Z,973.9
2023-01-30T14:55:57.904Z,974.1
2023-01-30T14:57:41.462Z,973.2
2023-01-30T14:59:25.305Z,970.5
2023-01-30T15:01:08.845Z,968.8
2023-01-30T15:02:52.780Z,972.4
2023-01-30T15:04:36.408Z,977.2
2023-01-30T15:06:20.146Z,978.8
2023-01-30T15:08:03.673Z,979.8
2023-01-30T15:09:47.527Z,983.4
2023-01-30T15:11:31.151Z,988.7
2023-01-30T15:13:14.899Z,990.2
2023-01-30T15:14:58.668Z,993.3
2023-01-30T15:16:42.276Z,997.8
2023-01-30T15:18:26.076Z,1005.6
2023-01-30T15:20:09.723Z,1002.1
2023-01-30T15:21:53.474Z,999.1
2023-01-30T15:23:37.172Z,998.7
2023-01-30T15:25:20.882Z,996.5
2023-01-30T15:27:04.377Z,995.5
2023-01-30T15:28:48.233Z,993.8
2023-01-30T15:30:31.896Z,990.3
2023-01-30T15:32:15.630Z,989.3
2023-01-30T15:33:59.376Z,994.4
2023-01-30T15:35:42.949Z,995.7
2023-01-30T15:37:26.717Z,991.4
2023-01-30T15:39:10.497Z,989.3
2023-01-30T15:40:54.015Z,987
2023-01-30T15:42:37.867Z,988.7
2023-01-30T15:44:21.566Z,992.2
2023-01-30T15:46:05.122Z,986.1
2023-01-30T15:47:49.017Z,983.3
2023-01-30T15:49:32.678Z,983.1
2023-01-30T15:51:16.313Z,982
2023-01-30T15:53:00.097Z,981.2
2023-01-30T15:54:43.699Z,981.6
2023-01-30T15:56:27.338Z,984.7
2023-01-30T15:58:11.114Z,985.3
2023-01-30T15:59:54.768Z,986.1
2023-01-30T16:01:38.430Z,992.5
2023-01-30T16:03:22.312Z,998.5
2023-01-30T16:05:05.961Z,1003.8
2023-01-30T16:06:49.689Z,1003
2023-01-30T16:08:33.371Z,1003.9
2023-01-30T16:10:16.960Z,1005.2
2023-01-30T16:12:00.667Z,1008.7
2023-01-30T16:13:44.320Z,1009.6
2023-01-30T16:15:28.118Z,1009.9
2023-01-30T16:17:11.902Z,1014.1
2023-01-30T16:18:55.631Z,1017.2
2023-01-30T16:20:39.239Z,1018.5
2023-01-30T16:22:22.983Z,1019
2023-01-30T16:24:06.614Z,1021.2
2023-01-30T16:25:50.362Z,1020.9
2023-01-30T16:27:34.139Z,1021
2023-01-30T16:29:17.836Z,1023.3
2023-01-30T16:31:01.519Z,1028
2023-01-30T16:32:45.069Z,1034.9
2023-01-30T16:34:28.903Z,1040.4
2023-01-30T16:36:12.609Z,1040
2023-01-30T16:37:56.195Z,1035.5
2023-01-30T16:39:40.020Z,1030.5
2023-01-30T16:41:23.704Z,1034.3
2023-01-30T16:43:07.320Z,1060.1
2023-01-30T16:44:51.187Z,1051.7
2023-01-30T16:46:34.860Z,1054.1
2023-01-30T16:48:18.641Z,1050.6
2023-01-30T16:50:02.090Z,1043.7
2023-01-30T16:51:45.820Z,1037.5
2023-01-30T16:53:29.599Z,1035.3
2023-01-30T16:55:13.324Z,1034.8
2023-01-30T16:56:57.105Z,1034.8
2023-01-30T16:58:40.720Z,1033.9
2023-01-30T17:00:24.410Z,1035.7
2023-01-30T17:02:08.128Z,1040
2023-01-30T17:03:51.733Z,1041.2
2023-01-30T17:05:35.520Z,1044.3
2023-01-30T17:07:19.275Z,1047.2
2023-01-30T17:09:02.828Z,1050.7
2023-01-30T17:10:46.665Z,1055.7
2023-01-30T17:12:30.226Z,1059.7
2023-01-30T17:14:13.995Z,1073.2
2023-01-30T17:15:57.801Z,1101.1
2023-01-30T17:17:41.445Z,1108.7
2023-01-30T17:19:25.233Z,1115.7
2023-01-30T17:21:08.710Z,1116.7
2023-01-30T17:22:52.472Z,1138.6
2023-01-30T17:24:36.136Z,1138.6
2023-01-30T17:26:19.926Z,1131.4
2023-01-30T17:28:03.678Z,1122.6
2023-01-30T17:29:47.324Z,1118.8
2023-01-30T17:31:31.134Z,1114.7
2023-01-30T17:33:14.832Z,1112
2023-01-30T17:34:58.346Z,1108.2
2023-01-30T17:36:42.225Z,1104.7
2023-01-30T17:38:25.797Z,1104.3
2023-01-30T17:40:09.609Z,1104.1
2023-01-30T17:41:53.297Z,1103.1
2023-01-30T17:43:36.937Z,1100.3
2023-01-30T17:45:20.703Z,1095.6
2023-01-30T17:47:04.411Z,1094.9
2023-01-30T17:48:48.135Z,1095.6
2023-01-30T17:50:31.800Z,1094.6
2023-01-30T17:52:15.477Z,1091.9
2023-01-30T17:53:59.023Z,1086.6
2023-01-30T17:55:42.894Z,1083.8
2023-01-30T17:57:26.557Z,1079.8
2023-01-30T17:59:10.295Z,1075.5
2023-01-30T18:00:54.038Z,1071.2
2023-01-30T18:02:37.713Z,1074.7
2023-01-30T18:04:21.380Z,1082.9
2023-01-30T18:06:05.127Z,1085.3
2023-01-30T18:07:48.739Z,1086.9
2023-01-30T18:09:32.441Z,1084.3
2023-01-30T18:11:16.277Z,1085.5
2023-01-30T18:12:59.812Z,1086.7
2023-01-30T18:14:43.448Z,1088
2023-01-30T18:16:27.223Z,1088.9
2023-01-30T18:18:10.992Z,1090.8
2023-01-30T18:19:54.732Z,1092.3
2023-01-30T18:21:38.417Z,1091.7
2023-01-30T18:23:21.980Z,1091.8
2023-01-30T18:25:05.768Z,1090.2
2023-01-30T18:26:49.519Z,1085.6
2023-01-30T18:28:33.244Z,1081.7
2023-01-30T18:30:16.799Z,1076.2
2023-01-30T18:32:00.570Z,1074.9
2023-01-30T18:33:44.285Z,1072.8
2023-01-30T18:35:27.958Z,1070.4
2023-01-30T18:37:11.745Z,1069.3
2023-01-30T18:38:55.437Z,1070.6
2023-01-30T18:40:39.073Z,1074.7
2023-01-30T18:42:22.788Z,1078.8
2023-01-30T18:44:06.599Z,1078.3
2023-01-30T18:45:50.194Z,1079.3
2023-01-30T18:47:33.968Z,1080.4
2023-01-30T18:49:17.645Z,1084.2
2023-01-30T18:51:01.380Z,1098.4
2023-01-30T18:52:45.038Z,1112.9
2023-01-30T18:54:28.751Z,1121.8
2023-01-30T18:56:12.435Z,1128.2
2023-01-30T18:57:56.124Z,1139.6
2023-01-30T18:59:39.803Z,1145.8
2023-01-30T19:01:23.510Z,1147.9
2023-01-30T19:03:07.245Z,1150.6
2023-01-30T19:04:51.006Z,1150.2
2023-01-30T19:06:34.657Z,1149.7
2023-01-30T19:08:18.403Z,1147
2023-01-30T19:10:01.882Z,1157.4
2023-01-30T19:11:45.587Z,1169
2023-01-30T19:13:29.481Z,1170.3
2023-01-30T19:15:13.159Z,1167.5
2023-01-30T19:16:56.841Z,1174.9
2023-01-30T19:18:40.478Z,1173.6
2023-01-30T19:20:24.201Z,1160.1
2023-01-30T19:22:07.971Z,1153.4
2023-01-30T19:23:51.639Z,1147.5
2023-01-30T19:25:35.226Z,1141.1
2023-01-30T19:27:19.109Z,1137.1
2023-01-30T19:29:02.747Z,1133
2023-01-30T19:30:46.494Z,1128.3
2023-01-30T19:32:30.098Z,1119.7
2023-01-30T19:34:13.847Z,1119.5
2023-01-30T19:37:41.267Z,1114.6
2023-01-30T19:39:24.997Z,1114.6
2023-01-30T19:41:08.689Z,1114.4
2023-01-30T19:42:52.424Z,1110.7
2023-01-30T19:44:36.198Z,1110.7
2023-01-30T19:46:19.823Z,1114
2023-01-30T19:48:03.460Z,1118.8
2023-01-30T19:49:47.077Z,1117.7
2023-01-30T19:51:31.043Z,1116.7
2023-01-30T19:53:14.657Z,1113.2
2023-01-30T19:54:58.344Z,1110.1
2023-01-30T19:56:42.049Z,1113.2
2023-01-30T19:58:25.724Z,1116.7
2023-01-30T20:00:09.439Z,1119.2
2023-01-30T20:01:53.117Z,1120
2023-01-30T20:03:36.844Z,1122.7
2023-01-30T20:05:20.562Z,1126.6
2023-01-30T20:07:04.252Z,1136.9
2023-01-30T20:08:47.745Z,1138.7
2023-01-30T20:10:31.451Z,1140.8
2023-01-30T20:12:15.308Z,1141
2023-01-30T20:13:58.903Z,1138.2
2023-01-30T20:15:42.720Z,1136.9
2023-01-30T20:17:26.443Z,1136.7
2023-01-30T20:19:10.231Z,1136.7
2023-01-30T20:20:53.780Z,1134.1
2023-01-30T20:22:37.546Z,1133.3
2023-01-30T20:24:21.206Z,1127.8
2023-01-30T20:26:04.777Z,1127.6
2023-01-30T20:27:48.613Z,1123.5
2023-01-30T20:29:32.343Z,1120.7
2023-01-30T20:31:16.091Z,1120
2023-01-30T20:32:59.741Z,1119.7
2023-01-30T20:34:43.420Z,1120.7
2023-01-30T20:36:27.089Z,1120.2
2023-01-30T20:38:10.894Z,1120.5
2023-01-30T20:39:54.375Z,1119.7
2023-01-30T20:41:38.122Z,1119.8
2023-01-30T20:43:21.925Z,1124.7
2023-01-30T20:45:05.474Z,1130.3
2023-01-30T20:46:49.367Z,1128.8
2023-01-30T20:48:33.058Z,1129.4
2023-01-30T20:50:16.713Z,1132.4
2023-01-30T20:52:00.317Z,1133.3
2023-01-30T20:53:44.077Z,1132.1
2023-01-30T20:55:27.843Z,1131.5
2023-01-30T20:57:11.527Z,1132.1
2023-01-30T20:58:55.152Z,1129.8
2023-01-30T21:00:38.948Z,1129.9
2023-01-30T21:02:22.597Z,1132.4
2023-01-30T21:04:06.291Z,1133.3
2023-01-30T21:05:49.995Z,1134.1
2023-01-30T21:09:17.442Z,1141.1
2023-01-30T21:11:01.001Z,1142.2
2023-01-30T21:12:44.881Z,1142
2023-01-30T21:14:28.541Z,1138.2
2023-01-30T21:16:12.308Z,1136.3
2023-01-30T21:17:55.952Z,1141.1
2023-01-30T21:19:39.665Z,1139.1
2023-01-30T21:21:23.445Z,1139.8
2023-01-30T21:23:07.048Z,1139.6
2023-01-30T21:24:50.772Z,1141.4
2023-01-30T21:26:34.373Z,1142
2023-01-30T21:28:18.143Z,1139.4
2023-01-30T21:30:01.743Z,1131
2023-01-30T21:31:45.586Z,1127.6
2023-01-30T21:33:29.247Z,1126.2
2023-01-30T21:35:12.982Z,1125.9
2023-01-30T21:36:56.700Z,1124.1
2023-01-30T21:40:24.117Z,1120.2
2023-01-30T21:42:07.800Z,1118.8
2023-01-30T21:43:51.328Z,1119.2
2023-01-30T21:45:35.185Z,1121.3
2023-01-30T21:47:18.841Z,1119.7
2023-01-30T21:50:46.271Z,1112.8
2023-01-30T21:52:30.001Z,1111.6
2023-01-30T21:54:13.667Z,1109.2
2023-01-30T21:55:57.396Z,1112.8
2023-01-30T21:57:41.074Z,1111.9
2023-01-30T21:59:24.840Z,1111.2
2023-01-30T22:01:08.572Z,1108.5
2023-01-30T22:02:52.217Z,1106.7
2023-01-30T22:04:35.889Z,1107
2023-01-30T22:06:19.547Z,1104.9
2023-01-30T22:08:03.328Z,1097.7
2023-01-30T22:09:46.860Z,1095.1
2023-01-30T22:11:30.713Z,1096.5
2023-01-30T22:13:14.286Z,1096.9
2023-01-30T22:14:58.097Z,1094.4
2023-01-30T22:16:41.904Z,1097.2
2023-01-30T22:18:25.559Z,1094.7
2023-01-30T22:20:09.229Z,1095.3
2023-01-30T22:21:52.971Z,1091.8
2023-01-30T22:23:36.625Z,1090.9
2023-01-30T22:25:20.180Z,1087.5